sensor_id;sensor_type;location;lat;lon;timestamp;P1;durP1;ratioP1;P2;durP2;ratioP2
16401;SDS011;8310;44.626;11.176;2023-08-24T00:02:17;10.98;;;4.50;;
16401;SDS011;8310;44.626;11.176;2023-08-24T00:04:45;8.15;;;4.70;;
16401;SDS011;8310;44.626;11.176;2023-08-24T00:07:13;8.95;;;4.40;;
16401;SDS011;8310;44.626;11.176;2023-08-24T00:09:40;9.30;;;4.40;;
16401;SDS011;8310;44.626;11.176;2023-08-24T00:12:08;7.68;;;4.45;;
16401;SDS011;8310;44.626;11.176;2023-08-24T00:14:35;11.40;;;4.65;;
16401;SDS011;8310;44.626;11.176;2023-08-24T00:17:03;8.77;;;4.55;;
16401;SDS011;8310;44.626;11.176;2023-08-24T00:19:32;14.43;;;5.38;;
16401;SDS011;8310;44.626;11.176;2023-08-24T00:22:00;6.80;;;4.68;;
16401;SDS011;8310;44.626;11.176;2023-08-24T00:24:27;9.13;;;4.47;;
16401;SDS011;8310;44.626;11.176;2023-08-24T00:26:54;9.90;;;4.55;;
16401;SDS011;8310;44.626;11.176;2023-08-24T00:29:22;8.50;;;4.38;;
16401;SDS011;8310;44.626;11.176;2023-08-24T00:31:49;9.27;;;5.40;;
16401;SDS011;8310;44.626;11.176;2023-08-24T00:34:17;8.52;;;5.22;;
16401;SDS011;8310;44.626;11.176;2023-08-24T00:36:46;10.38;;;5.47;;
16401;SDS011;8310;44.626;11.176;2023-08-24T00:39:13;10.68;;;5.80;;
16401;SDS011;8310;44.626;11.176;2023-08-24T00:44:08;8.57;;;4.70;;
16401;SDS011;8310;44.626;11.176;2023-08-24T00:46:37;8.40;;;4.53;;
16401;SDS011;8310;44.626;11.176;2023-08-24T00:49:04;10.13;;;5.20;;
16401;SDS011;8310;44.626;11.176;2023-08-24T00:51:32;11.15;;;5.10;;
16401;SDS011;8310;44.626;11.176;2023-08-24T00:54:03;6.35;;;4.97;;
16401;SDS011;8310;44.626;11.176;2023-08-24T00:56:33;9.45;;;4.90;;
16401;SDS011;8310;44.626;11.176;2023-08-24T00:59:01;10.02;;;5.22;;
16401;SDS011;8310;44.626;11.176;2023-08-24T01:01:28;7.57;;;4.93;;
16401;SDS011;8310;44.626;11.176;2023-08-24T01:06:24;8.93;;;5.28;;
16401;SDS011;8310;44.626;11.176;2023-08-24T01:08:51;6.22;;;5.32;;
16401;SDS011;8310;44.626;11.176;2023-08-24T01:13:54;9.38;;;5.32;;
16401;SDS011;8310;44.626;11.176;2023-08-24T01:16:27;11.38;;;5.38;;
16401;SDS011;8310;44.626;11.176;2023-08-24T01:18:57;9.57;;;5.57;;
16401;SDS011;8310;44.626;11.176;2023-08-24T01:21:26;13.93;;;5.72;;
16401;SDS011;8310;44.626;11.176;2023-08-24T01:23:56;11.18;;;5.07;;
16401;SDS011;8310;44.626;11.176;2023-08-24T01:26:31;7.10;;;5.18;;
16401;SDS011;8310;44.626;11.176;2023-08-24T01:29:00;8.95;;;4.43;;
16401;SDS011;8310;44.626;11.176;2023-08-24T01:31:30;10.57;;;4.93;;
16401;SDS011;8310;44.626;11.176;2023-08-24T01:36:26;7.80;;;5.10;;
16401;SDS011;8310;44.626;11.176;2023-08-24T01:38:58;8.73;;;5.00;;
16401;SDS011;8310;44.626;11.176;2023-08-24T01:41:34;9.68;;;5.20;;
16401;SDS011;8310;44.626;11.176;2023-08-24T01:44:03;12.77;;;5.38;;
16401;SDS011;8310;44.626;11.176;2023-08-24T01:46:33;10.10;;;5.18;;
16401;SDS011;8310;44.626;11.176;2023-08-24T01:49:01;8.80;;;6.30;;
16401;SDS011;8310;44.626;11.176;2023-08-24T01:51:30;10.32;;;4.63;;
16401;SDS011;8310;44.626;11.176;2023-08-24T01:53:59;14.52;;;4.70;;
16401;SDS011;8310;44.626;11.176;2023-08-24T01:56:27;11.05;;;5.07;;
16401;SDS011;8310;44.626;11.176;2023-08-24T01:58:56;12.38;;;5.75;;
16401;SDS011;8310;44.626;11.176;2023-08-24T02:01:24;7.70;;;4.80;;
16401;SDS011;8310;44.626;11.176;2023-08-24T02:03:52;11.80;;;5.28;;
16401;SDS011;8310;44.626;11.176;2023-08-24T02:06:19;9.45;;;5.90;;
16401;SDS011;8310;44.626;11.176;2023-08-24T02:11:14;9.57;;;5.18;;
16401;SDS011;8310;44.626;11.176;2023-08-24T02:13:42;10.15;;;4.65;;
16401;SDS011;8310;44.626;11.176;2023-08-24T02:16:11;9.80;;;5.20;;
16401;SDS011;8310;44.626;11.176;2023-08-24T02:18:38;11.25;;;4.78;;
16401;SDS011;8310;44.626;11.176;2023-08-24T02:21:09;10.38;;;4.88;;
16401;SDS011;8310;44.626;11.176;2023-08-24T02:23:39;7.13;;;4.50;;
16401;SDS011;8310;44.626;11.176;2023-08-24T02:26:06;7.75;;;5.05;;
16401;SDS011;8310;44.626;11.176;2023-08-24T02:28:36;9.27;;;5.57;;
16401;SDS011;8310;44.626;11.176;2023-08-24T02:31:04;7.03;;;4.82;;
16401;SDS011;8310;44.626;11.176;2023-08-24T02:33:34;6.68;;;4.45;;
16401;SDS011;8310;44.626;11.176;2023-08-24T02:36:03;12.75;;;5.28;;
16401;SDS011;8310;44.626;11.176;2023-08-24T02:38:31;15.35;;;4.72;;
16401;SDS011;8310;44.626;11.176;2023-08-24T02:41:02;8.02;;;4.80;;
16401;SDS011;8310;44.626;11.176;2023-08-24T02:43:30;12.90;;;5.13;;
16401;SDS011;8310;44.626;11.176;2023-08-24T02:46:01;12.38;;;4.93;;
16401;SDS011;8310;44.626;11.176;2023-08-24T02:48:30;8.85;;;5.07;;
16401;SDS011;8310;44.626;11.176;2023-08-24T02:50:59;9.23;;;4.63;;
16401;SDS011;8310;44.626;11.176;2023-08-24T02:53:29;7.30;;;4.80;;
16401;SDS011;8310;44.626;11.176;2023-08-24T02:55:57;7.78;;;4.57;;
16401;SDS011;8310;44.626;11.176;2023-08-24T02:58:25;5.97;;;4.72;;
16401;SDS011;8310;44.626;11.176;2023-08-24T03:00:52;9.00;;;4.28;;
16401;SDS011;8310;44.626;11.176;2023-08-24T03:03:20;7.13;;;4.75;;
16401;SDS011;8310;44.626;11.176;2023-08-24T03:05:54;5.95;;;4.18;;
16401;SDS011;8310;44.626;11.176;2023-08-24T03:08:23;9.35;;;4.57;;
16401;SDS011;8310;44.626;11.176;2023-08-24T03:10:51;8.45;;;5.15;;
16401;SDS011;8310;44.626;11.176;2023-08-24T03:13:19;7.78;;;4.93;;
16401;SDS011;8310;44.626;11.176;2023-08-24T03:15:46;7.70;;;5.45;;
16401;SDS011;8310;44.626;11.176;2023-08-24T03:18:14;9.38;;;4.75;;
16401;SDS011;8310;44.626;11.176;2023-08-24T03:20:43;8.57;;;4.72;;
16401;SDS011;8310;44.626;11.176;2023-08-24T03:23:11;11.45;;;4.50;;
16401;SDS011;8310;44.626;11.176;2023-08-24T03:25:40;7.57;;;4.65;;
16401;SDS011;8310;44.626;11.176;2023-08-24T03:28:08;12.32;;;5.00;;
16401;SDS011;8310;44.626;11.176;2023-08-24T03:30:37;6.60;;;5.20;;
16401;SDS011;8310;44.626;11.176;2023-08-24T03:33:05;8.77;;;4.80;;
16401;SDS011;8310;44.626;11.176;2023-08-24T03:35:33;9.02;;;4.30;;
16401;SDS011;8310;44.626;11.176;2023-08-24T03:40:28;8.25;;;4.75;;
16401;SDS011;8310;44.626;11.176;2023-08-24T03:42:57;13.20;;;5.07;;
16401;SDS011;8310;44.626;11.176;2023-08-24T03:45:25;6.85;;;4.72;;
16401;SDS011;8310;44.626;11.176;2023-08-24T03:47:52;11.35;;;5.50;;
16401;SDS011;8310;44.626;11.176;2023-08-24T03:50:21;12.23;;;5.45;;
16401;SDS011;8310;44.626;11.176;2023-08-24T03:52:49;12.85;;;5.15;;
16401;SDS011;8310;44.626;11.176;2023-08-24T03:55:17;12.35;;;5.40;;
16401;SDS011;8310;44.626;11.176;2023-08-24T03:57:45;11.00;;;5.63;;
16401;SDS011;8310;44.626;11.176;2023-08-24T04:00:15;14.82;;;5.25;;
16401;SDS011;8310;44.626;11.176;2023-08-24T04:02:43;11.10;;;5.13;;
16401;SDS011;8310;44.626;11.176;2023-08-24T04:05:11;12.32;;;5.47;;
16401;SDS011;8310;44.626;11.176;2023-08-24T04:07:40;14.55;;;6.43;;
16401;SDS011;8310;44.626;11.176;2023-08-24T04:10:07;8.75;;;5.95;;
16401;SDS011;8310;44.626;11.176;2023-08-24T04:12:36;11.63;;;6.00;;
16401;SDS011;8310;44.626;11.176;2023-08-24T04:15:04;15.40;;;6.38;;
16401;SDS011;8310;44.626;11.176;2023-08-24T04:17:33;9.10;;;6.65;;
16401;SDS011;8310;44.626;11.176;2023-08-24T04:20:01;12.35;;;6.55;;
16401;SDS011;8310;44.626;11.176;2023-08-24T04:22:29;9.95;;;6.15;;
16401;SDS011;8310;44.626;11.176;2023-08-24T04:27:24;9.73;;;6.75;;
16401;SDS011;8310;44.626;11.176;2023-08-24T04:29:51;15.05;;;6.18;;
16401;SDS011;8310;44.626;11.176;2023-08-24T04:32:19;12.45;;;5.75;;
16401;SDS011;8310;44.626;11.176;2023-08-24T04:34:48;23.00;;;6.50;;
16401;SDS011;8310;44.626;11.176;2023-08-24T04:37:16;11.50;;;5.68;;
16401;SDS011;8310;44.626;11.176;2023-08-24T04:39:43;7.75;;;5.10;;
16401;SDS011;8310;44.626;11.176;2023-08-24T04:42:11;11.48;;;5.28;;
16401;SDS011;8310;44.626;11.176;2023-08-24T04:44:40;13.95;;;5.70;;
16401;SDS011;8310;44.626;11.176;2023-08-24T04:47:07;11.23;;;5.32;;
16401;SDS011;8310;44.626;11.176;2023-08-24T04:49:35;13.63;;;6.43;;
16401;SDS011;8310;44.626;11.176;2023-08-24T04:52:04;11.52;;;5.97;;
16401;SDS011;8310;44.626;11.176;2023-08-24T04:54:33;11.20;;;5.53;;
16401;SDS011;8310;44.626;11.176;2023-08-24T04:57:00;13.63;;;5.80;;
16401;SDS011;8310;44.626;11.176;2023-08-24T04:59:28;11.65;;;6.15;;
16401;SDS011;8310;44.626;11.176;2023-08-24T05:01:56;10.55;;;6.18;;
16401;SDS011;8310;44.626;11.176;2023-08-24T05:04:24;9.57;;;5.97;;
16401;SDS011;8310;44.626;11.176;2023-08-24T05:06:51;13.50;;;6.60;;
16401;SDS011;8310;44.626;11.176;2023-08-24T05:09:21;11.68;;;6.63;;
16401;SDS011;8310;44.626;11.176;2023-08-24T05:11:49;12.75;;;6.70;;
16401;SDS011;8310;44.626;11.176;2023-08-24T05:14:17;13.48;;;7.82;;
16401;SDS011;8310;44.626;11.176;2023-08-24T05:16:44;9.85;;;7.22;;
16401;SDS011;8310;44.626;11.176;2023-08-24T05:19:13;14.65;;;7.47;;
16401;SDS011;8310;44.626;11.176;2023-08-24T05:21:40;10.57;;;7.38;;
16401;SDS011;8310;44.626;11.176;2023-08-24T05:24:08;13.30;;;7.80;;
16401;SDS011;8310;44.626;11.176;2023-08-24T05:26:37;15.50;;;7.63;;
16401;SDS011;8310;44.626;11.176;2023-08-24T05:29:05;9.75;;;6.95;;
16401;SDS011;8310;44.626;11.176;2023-08-24T05:31:32;10.55;;;7.43;;
16401;SDS011;8310;44.626;11.176;2023-08-24T05:34:00;11.05;;;7.10;;
16401;SDS011;8310;44.626;11.176;2023-08-24T05:36:28;10.68;;;6.93;;
16401;SDS011;8310;44.626;11.176;2023-08-24T05:38:55;11.18;;;7.35;;
16401;SDS011;8310;44.626;11.176;2023-08-24T05:41:23;12.15;;;6.88;;
16401;SDS011;8310;44.626;11.176;2023-08-24T05:43:52;13.43;;;6.78;;
16401;SDS011;8310;44.626;11.176;2023-08-24T05:46:20;16.23;;;6.72;;
16401;SDS011;8310;44.626;11.176;2023-08-24T05:48:47;17.05;;;6.50;;
16401;SDS011;8310;44.626;11.176;2023-08-24T05:51:15;11.50;;;6.18;;
16401;SDS011;8310;44.626;11.176;2023-08-24T05:53:42;10.38;;;5.63;;
16401;SDS011;8310;44.626;11.176;2023-08-24T05:56:10;14.82;;;5.95;;
16401;SDS011;8310;44.626;11.176;2023-08-24T05:58:37;13.40;;;5.50;;
16401;SDS011;8310;44.626;11.176;2023-08-24T06:01:06;24.42;;;5.07;;
16401;SDS011;8310;44.626;11.176;2023-08-24T06:03:33;9.23;;;4.78;;
16401;SDS011;8310;44.626;11.176;2023-08-24T06:06:01;8.88;;;5.22;;
16401;SDS011;8310;44.626;11.176;2023-08-24T06:08:30;13.75;;;4.90;;
16401;SDS011;8310;44.626;11.176;2023-08-24T06:10:57;7.68;;;4.65;;
16401;SDS011;8310;44.626;11.176;2023-08-24T06:13:25;12.75;;;5.03;;
16401;SDS011;8310;44.626;11.176;2023-08-24T06:15:52;14.88;;;4.43;;
16401;SDS011;8310;44.626;11.176;2023-08-24T06:18:22;11.38;;;4.90;;
16401;SDS011;8310;44.626;11.176;2023-08-24T06:20:50;13.25;;;4.95;;
16401;SDS011;8310;44.626;11.176;2023-08-24T06:23:18;7.50;;;4.70;;
16401;SDS011;8310;44.626;11.176;2023-08-24T06:25:46;11.43;;;4.38;;
16401;SDS011;8310;44.626;11.176;2023-08-24T06:28:14;7.50;;;4.55;;
16401;SDS011;8310;44.626;11.176;2023-08-24T06:30:42;13.00;;;4.93;;
16401;SDS011;8310;44.626;11.176;2023-08-24T06:33:12;9.50;;;4.57;;
16401;SDS011;8310;44.626;11.176;2023-08-24T06:35:41;10.43;;;4.82;;
16401;SDS011;8310;44.626;11.176;2023-08-24T06:38:09;8.38;;;4.55;;
16401;SDS011;8310;44.626;11.176;2023-08-24T06:40:37;12.35;;;5.25;;
16401;SDS011;8310;44.626;11.176;2023-08-24T06:43:05;12.82;;;5.05;;
16401;SDS011;8310;44.626;11.176;2023-08-24T06:45:32;10.70;;;4.32;;
16401;SDS011;8310;44.626;11.176;2023-08-24T06:48:00;10.07;;;4.45;;
16401;SDS011;8310;44.626;11.176;2023-08-24T06:50:27;13.45;;;4.75;;
16401;SDS011;8310;44.626;11.176;2023-08-24T06:52:56;15.90;;;5.35;;
16401;SDS011;8310;44.626;11.176;2023-08-24T06:55:24;9.90;;;4.93;;
16401;SDS011;8310;44.626;11.176;2023-08-24T06:57:51;10.40;;;4.90;;
16401;SDS011;8310;44.626;11.176;2023-08-24T07:00:19;11.32;;;4.82;;
16401;SDS011;8310;44.626;11.176;2023-08-24T07:02:47;11.43;;;4.35;;
16401;SDS011;8310;44.626;11.176;2023-08-24T07:07:43;8.60;;;4.75;;
16401;SDS011;8310;44.626;11.176;2023-08-24T07:10:12;15.60;;;4.75;;
16401;SDS011;8310;44.626;11.176;2023-08-24T07:12:40;10.00;;;4.22;;
16401;SDS011;8310;44.626;11.176;2023-08-24T07:15:09;12.23;;;4.53;;
16401;SDS011;8310;44.626;11.176;2023-08-24T07:17:38;8.60;;;4.38;;
16401;SDS011;8310;44.626;11.176;2023-08-24T07:20:06;9.95;;;4.68;;
16401;SDS011;8310;44.626;11.176;2023-08-24T07:22:34;11.02;;;4.30;;
16401;SDS011;8310;44.626;11.176;2023-08-24T07:25:02;10.63;;;4.78;;
16401;SDS011;8310;44.626;11.176;2023-08-24T07:27:32;12.18;;;4.15;;
16401;SDS011;8310;44.626;11.176;2023-08-24T07:30:00;10.02;;;4.60;;
16401;SDS011;8310;44.626;11.176;2023-08-24T07:32:28;8.88;;;4.40;;
16401;SDS011;8310;44.626;11.176;2023-08-24T07:34:56;17.70;;;4.82;;
16401;SDS011;8310;44.626;11.176;2023-08-24T07:39:52;12.13;;;4.35;;
16401;SDS011;8310;44.626;11.176;2023-08-24T07:42:19;10.25;;;4.97;;
16401;SDS011;8310;44.626;11.176;2023-08-24T07:44:49;12.77;;;4.50;;
16401;SDS011;8310;44.626;11.176;2023-08-24T07:47:16;8.15;;;4.35;;
16401;SDS011;8310;44.626;11.176;2023-08-24T07:49:44;13.98;;;4.95;;
16401;SDS011;8310;44.626;11.176;2023-08-24T07:52:11;9.73;;;4.45;;
16401;SDS011;8310;44.626;11.176;2023-08-24T07:54:39;11.23;;;4.05;;
16401;SDS011;8310;44.626;11.176;2023-08-24T07:57:07;13.30;;;4.30;;
16401;SDS011;8310;44.626;11.176;2023-08-24T07:59:35;7.18;;;4.10;;
16401;SDS011;8310;44.626;11.176;2023-08-24T08:02:04;11.38;;;4.80;;
16401;SDS011;8310;44.626;11.176;2023-08-24T08:04:31;14.43;;;4.30;;
16401;SDS011;8310;44.626;11.176;2023-08-24T08:06:59;12.00;;;4.60;;
16401;SDS011;8310;44.626;11.176;2023-08-24T08:09:27;18.00;;;4.60;;
16401;SDS011;8310;44.626;11.176;2023-08-24T08:11:54;10.25;;;4.45;;
16401;SDS011;8310;44.626;11.176;2023-08-24T08:14:22;12.27;;;5.07;;
16401;SDS011;8310;44.626;11.176;2023-08-24T08:16:50;12.63;;;4.43;;
16401;SDS011;8310;44.626;11.176;2023-08-24T08:19:20;13.68;;;4.57;;
16401;SDS011;8310;44.626;11.176;2023-08-24T08:21:47;11.02;;;4.25;;
16401;SDS011;8310;44.626;11.176;2023-08-24T08:24:14;8.82;;;4.35;;
16401;SDS011;8310;44.626;11.176;2023-08-24T08:26:42;11.70;;;4.10;;
16401;SDS011;8310;44.626;11.176;2023-08-24T08:29:09;11.82;;;3.80;;
16401;SDS011;8310;44.626;11.176;2023-08-24T08:31:37;13.60;;;5.22;;
16401;SDS011;8310;44.626;11.176;2023-08-24T08:34:05;10.43;;;3.97;;
16401;SDS011;8310;44.626;11.176;2023-08-24T08:36:35;16.00;;;4.65;;
16401;SDS011;8310;44.626;11.176;2023-08-24T08:39:02;14.20;;;4.00;;
16401;SDS011;8310;44.626;11.176;2023-08-24T08:41:31;11.07;;;4.32;;
16401;SDS011;8310;44.626;11.176;2023-08-24T08:44:04;11.30;;;4.18;;
16401;SDS011;8310;44.626;11.176;2023-08-24T08:46:33;16.05;;;4.40;;
16401;SDS011;8310;44.626;11.176;2023-08-24T08:51:29;12.93;;;4.93;;
16401;SDS011;8310;44.626;11.176;2023-08-24T08:53:58;13.75;;;4.18;;
16401;SDS011;8310;44.626;11.176;2023-08-24T08:56:27;12.60;;;4.32;;
16401;SDS011;8310;44.626;11.176;2023-08-24T08:58:55;12.85;;;4.38;;
16401;SDS011;8310;44.626;11.176;2023-08-24T09:01:23;9.57;;;4.07;;
16401;SDS011;8310;44.626;11.176;2023-08-24T09:03:51;11.73;;;4.45;;
16401;SDS011;8310;44.626;11.176;2023-08-24T09:06:20;10.57;;;3.72;;
16401;SDS011;8310;44.626;11.176;2023-08-24T09:08:47;6.93;;;3.60;;
16401;SDS011;8310;44.626;11.176;2023-08-24T09:11:18;6.47;;;3.67;;
16401;SDS011;8310;44.626;11.176;2023-08-24T09:13:46;7.00;;;3.80;;
16401;SDS011;8310;44.626;11.176;2023-08-24T09:16:13;11.00;;;3.80;;
16401;SDS011;8310;44.626;11.176;2023-08-24T09:18:43;18.38;;;4.93;;
16401;SDS011;8310;44.626;11.176;2023-08-24T09:21:13;12.60;;;3.65;;
16401;SDS011;8310;44.626;11.176;2023-08-24T09:23:43;10.27;;;3.80;;
16401;SDS011;8310;44.626;11.176;2023-08-24T09:26:12;7.80;;;3.53;;
16401;SDS011;8310;44.626;11.176;2023-08-24T09:28:43;7.80;;;3.65;;
16401;SDS011;8310;44.626;11.176;2023-08-24T09:31:11;10.13;;;3.60;;
16401;SDS011;8310;44.626;11.176;2023-08-24T09:33:42;7.55;;;4.00;;
16401;SDS011;8310;44.626;11.176;2023-08-24T09:36:11;8.77;;;3.35;;
16401;SDS011;8310;44.626;11.176;2023-08-24T09:38:45;20.42;;;4.28;;
16401;SDS011;8310;44.626;11.176;2023-08-24T09:41:14;10.27;;;3.78;;
16401;SDS011;8310;44.626;11.176;2023-08-24T09:46:11;12.55;;;3.92;;
16401;SDS011;8310;44.626;11.176;2023-08-24T09:48:38;10.98;;;3.10;;
16401;SDS011;8310;44.626;11.176;2023-08-24T09:53:35;9.05;;;3.97;;
16401;SDS011;8310;44.626;11.176;2023-08-24T09:56:04;6.65;;;3.00;;
16401;SDS011;8310;44.626;11.176;2023-08-24T09:58:34;10.75;;;3.45;;
16401;SDS011;8310;44.626;11.176;2023-08-24T10:01:03;5.95;;;2.90;;
16401;SDS011;8310;44.626;11.176;2023-08-24T10:03:32;13.13;;;4.75;;
16401;SDS011;8310;44.626;11.176;2023-08-24T10:06:02;5.45;;;2.72;;
16401;SDS011;8310;44.626;11.176;2023-08-24T10:08:32;5.72;;;2.83;;
16401;SDS011;8310;44.626;11.176;2023-08-24T10:11:03;7.50;;;2.70;;
16401;SDS011;8310;44.626;11.176;2023-08-24T10:13:33;9.02;;;3.35;;
16401;SDS011;8310;44.626;11.176;2023-08-24T10:16:08;5.07;;;2.92;;
16401;SDS011;8310;44.626;11.176;2023-08-24T10:18:38;4.53;;;3.17;;
16401;SDS011;8310;44.626;11.176;2023-08-24T10:21:07;8.85;;;3.45;;
16401;SDS011;8310;44.626;11.176;2023-08-24T10:23:35;4.75;;;3.53;;
16401;SDS011;8310;44.626;11.176;2023-08-24T10:26:05;8.32;;;3.30;;
16401;SDS011;8310;44.626;11.176;2023-08-24T10:28:33;8.45;;;3.13;;
16401;SDS011;8310;44.626;11.176;2023-08-24T10:31:01;4.85;;;3.33;;
16401;SDS011;8310;44.626;11.176;2023-08-24T10:33:31;9.32;;;3.75;;
16401;SDS011;8310;44.626;11.176;2023-08-24T10:36:03;6.88;;;3.00;;
16401;SDS011;8310;44.626;11.176;2023-08-24T10:38:34;7.90;;;3.08;;
16401;SDS011;8310;44.626;11.176;2023-08-24T10:41:06;5.28;;;3.22;;
16401;SDS011;8310;44.626;11.176;2023-08-24T10:43:34;6.90;;;3.67;;
16401;SDS011;8310;44.626;11.176;2023-08-24T10:46:02;11.50;;;3.10;;
16401;SDS011;8310;44.626;11.176;2023-08-24T10:48:56;7.85;;;3.53;;
16401;SDS011;8310;44.626;11.176;2023-08-24T10:51:27;13.38;;;3.13;;
16401;SDS011;8310;44.626;11.176;2023-08-24T10:53:55;7.97;;;3.50;;
16401;SDS011;8310;44.626;11.176;2023-08-24T10:56:30;5.20;;;3.35;;
16401;SDS011;8310;44.626;11.176;2023-08-24T10:59:12;6.05;;;3.70;;
16401;SDS011;8310;44.626;11.176;2023-08-24T11:01:40;7.22;;;3.45;;
16401;SDS011;8310;44.626;11.176;2023-08-24T11:04:10;8.90;;;4.15;;
16401;SDS011;8310;44.626;11.176;2023-08-24T11:06:53;7.03;;;3.63;;
16401;SDS011;8310;44.626;11.176;2023-08-24T11:09:22;11.65;;;3.53;;
16401;SDS011;8310;44.626;11.176;2023-08-24T11:11:57;6.03;;;3.10;;
16401;SDS011;8310;44.626;11.176;2023-08-24T11:14:26;6.85;;;3.17;;
16401;SDS011;8310;44.626;11.176;2023-08-24T11:16:56;5.97;;;3.25;;
16401;SDS011;8310;44.626;11.176;2023-08-24T11:19:26;7.18;;;3.00;;
16401;SDS011;8310;44.626;11.176;2023-08-24T11:21:55;9.90;;;3.20;;
16401;SDS011;8310;44.626;11.176;2023-08-24T11:24:23;6.65;;;3.17;;
16401;SDS011;8310;44.626;11.176;2023-08-24T11:26:51;6.78;;;2.97;;
16401;SDS011;8310;44.626;11.176;2023-08-24T11:29:19;6.55;;;3.10;;
16401;SDS011;8310;44.626;11.176;2023-08-24T11:31:47;5.28;;;3.33;;
16401;SDS011;8310;44.626;11.176;2023-08-24T11:34:14;7.40;;;3.47;;
16401;SDS011;8310;44.626;11.176;2023-08-24T11:36:47;5.97;;;3.20;;
16401;SDS011;8310;44.626;11.176;2023-08-24T11:39:16;8.95;;;4.22;;
16401;SDS011;8310;44.626;11.176;2023-08-24T11:41:44;13.27;;;3.20;;
16401;SDS011;8310;44.626;11.176;2023-08-24T11:44:13;9.23;;;3.92;;
16401;SDS011;8310;44.626;11.176;2023-08-24T11:46:41;7.80;;;3.58;;
16401;SDS011;8310;44.626;11.176;2023-08-24T11:49:09;7.07;;;3.47;;
16401;SDS011;8310;44.626;11.176;2023-08-24T11:51:37;5.68;;;3.70;;
16401;SDS011;8310;44.626;11.176;2023-08-24T11:54:06;9.93;;;3.90;;
16401;SDS011;8310;44.626;11.176;2023-08-24T11:56:34;5.18;;;3.55;;
16401;SDS011;8310;44.626;11.176;2023-08-24T11:59:06;7.32;;;3.60;;
16401;SDS011;8310;44.626;11.176;2023-08-24T12:01:38;6.43;;;3.63;;
16401;SDS011;8310;44.626;11.176;2023-08-24T12:04:06;9.50;;;3.63;;
16401;SDS011;8310;44.626;11.176;2023-08-24T12:06:34;10.85;;;3.70;;
16401;SDS011;8310;44.626;11.176;2023-08-24T12:09:04;6.57;;;3.60;;
16401;SDS011;8310;44.626;11.176;2023-08-24T12:11:36;5.95;;;3.50;;
16401;SDS011;8310;44.626;11.176;2023-08-24T12:14:05;10.38;;;4.15;;
16401;SDS011;8310;44.626;11.176;2023-08-24T12:16:34;6.72;;;3.30;;
16401;SDS011;8310;44.626;11.176;2023-08-24T12:19:06;10.70;;;3.67;;
16401;SDS011;8310;44.626;11.176;2023-08-24T12:21:34;10.05;;;3.63;;
16401;SDS011;8310;44.626;11.176;2023-08-24T12:24:01;8.77;;;3.80;;
16401;SDS011;8310;44.626;11.176;2023-08-24T12:26:32;4.72;;;3.97;;
16401;SDS011;8310;44.626;11.176;2023-08-24T12:29:01;8.98;;;3.92;;
16401;SDS011;8310;44.626;11.176;2023-08-24T12:31:30;8.23;;;3.95;;
16401;SDS011;8310;44.626;11.176;2023-08-24T12:33:59;12.20;;;3.40;;
16401;SDS011;8310;44.626;11.176;2023-08-24T12:36:28;9.77;;;3.80;;
16401;SDS011;8310;44.626;11.176;2023-08-24T12:38:56;6.88;;;3.35;;
16401;SDS011;8310;44.626;11.176;2023-08-24T12:41:25;6.22;;;3.70;;
16401;SDS011;8310;44.626;11.176;2023-08-24T12:46:21;7.68;;;3.90;;
16401;SDS011;8310;44.626;11.176;2023-08-24T12:48:48;11.02;;;4.60;;
16401;SDS011;8310;44.626;11.176;2023-08-24T12:53:43;5.57;;;3.78;;
16401;SDS011;8310;44.626;11.176;2023-08-24T12:56:11;10.43;;;3.88;;
16401;SDS011;8310;44.626;11.176;2023-08-24T12:58:39;7.32;;;4.05;;
16401;SDS011;8310;44.626;11.176;2023-08-24T13:03:35;5.75;;;3.15;;
16401;SDS011;8310;44.626;11.176;2023-08-24T13:06:04;8.93;;;4.10;;
16401;SDS011;8310;44.626;11.176;2023-08-24T13:08:31;8.80;;;3.47;;
16401;SDS011;8310;44.626;11.176;2023-08-24T13:10:59;10.90;;;3.55;;
16401;SDS011;8310;44.626;11.176;2023-08-24T13:13:27;6.97;;;3.97;;
16401;SDS011;8310;44.626;11.176;2023-08-24T13:15:56;11.43;;;3.25;;
16401;SDS011;8310;44.626;11.176;2023-08-24T13:18:23;9.10;;;3.67;;
16401;SDS011;8310;44.626;11.176;2023-08-24T13:23:19;6.00;;;3.42;;
16401;SDS011;8310;44.626;11.176;2023-08-24T13:25:47;13.18;;;3.60;;
16401;SDS011;8310;44.626;11.176;2023-08-24T13:30:42;6.03;;;2.90;;
16401;SDS011;8310;44.626;11.176;2023-08-24T13:33:09;11.52;;;3.30;;
16401;SDS011;8310;44.626;11.176;2023-08-24T13:35:37;8.55;;;3.42;;
16401;SDS011;8310;44.626;11.176;2023-08-24T13:40:33;7.82;;;3.03;;
16401;SDS011;8310;44.626;11.176;2023-08-24T13:43:01;3.70;;;2.72;;
16401;SDS011;8310;44.626;11.176;2023-08-24T13:45:29;7.32;;;3.00;;
16401;SDS011;8310;44.626;11.176;2023-08-24T13:47:56;11.80;;;3.22;;
16401;SDS011;8310;44.626;11.176;2023-08-24T13:50:24;8.88;;;3.22;;
16401;SDS011;8310;44.626;11.176;2023-08-24T13:55:20;8.18;;;3.05;;
16401;SDS011;8310;44.626;11.176;2023-08-24T13:57:48;3.90;;;2.50;;
16401;SDS011;8310;44.626;11.176;2023-08-24T14:00:16;14.25;;;3.10;;
16401;SDS011;8310;44.626;11.176;2023-08-24T14:02:44;7.82;;;2.55;;
16401;SDS011;8310;44.626;11.176;2023-08-24T14:05:13;6.97;;;3.00;;
16401;SDS011;8310;44.626;11.176;2023-08-24T14:07:40;9.45;;;2.95;;
16401;SDS011;8310;44.626;11.176;2023-08-24T14:10:08;8.00;;;2.70;;
16401;SDS011;8310;44.626;11.176;2023-08-24T14:12:37;6.25;;;2.90;;
16401;SDS011;8310;44.626;11.176;2023-08-24T14:15:05;4.40;;;2.70;;
16401;SDS011;8310;44.626;11.176;2023-08-24T14:17:34;9.25;;;2.55;;
16401;SDS011;8310;44.626;11.176;2023-08-24T14:20:01;5.60;;;2.40;;
16401;SDS011;8310;44.626;11.176;2023-08-24T14:22:30;5.43;;;2.42;;
16401;SDS011;8310;44.626;11.176;2023-08-24T14:24:59;5.28;;;2.08;;
16401;SDS011;8310;44.626;11.176;2023-08-24T14:27:27;7.53;;;2.17;;
16401;SDS011;8310;44.626;11.176;2023-08-24T14:32:23;4.72;;;2.50;;
16401;SDS011;8310;44.626;11.176;2023-08-24T14:34:50;5.43;;;2.63;;
16401;SDS011;8310;44.626;11.176;2023-08-24T14:37:18;6.10;;;2.33;;
16401;SDS011;8310;44.626;11.176;2023-08-24T14:39:46;6.50;;;2.20;;
16401;SDS011;8310;44.626;11.176;2023-08-24T14:42:14;7.00;;;2.42;;
16401;SDS011;8310;44.626;11.176;2023-08-24T14:44:41;9.48;;;2.83;;
16401;SDS011;8310;44.626;11.176;2023-08-24T14:47:10;13.80;;;2.92;;
16401;SDS011;8310;44.626;11.176;2023-08-24T14:49:38;9.18;;;2.55;;
16401;SDS011;8310;44.626;11.176;2023-08-24T14:52:05;7.28;;;2.55;;
16401;SDS011;8310;44.626;11.176;2023-08-24T14:54:33;5.97;;;2.70;;
16401;SDS011;8310;44.626;11.176;2023-08-24T14:57:00;3.72;;;2.70;;
16401;SDS011;8310;44.626;11.176;2023-08-24T14:59:28;10.90;;;2.40;;
16401;SDS011;8310;44.626;11.176;2023-08-24T15:04:27;9.15;;;2.13;;
16401;SDS011;8310;44.626;11.176;2023-08-24T15:06:54;9.85;;;2.45;;
16401;SDS011;8310;44.626;11.176;2023-08-24T15:09:22;7.00;;;2.50;;
16401;SDS011;8310;44.626;11.176;2023-08-24T15:11:49;4.50;;;2.25;;
16401;SDS011;8310;44.626;11.176;2023-08-24T15:14:17;6.07;;;2.17;;
16401;SDS011;8310;44.626;11.176;2023-08-24T15:16:44;8.35;;;2.60;;
16401;SDS011;8310;44.626;11.176;2023-08-24T15:19:12;9.23;;;2.40;;
16401;SDS011;8310;44.626;11.176;2023-08-24T15:21:41;4.18;;;2.45;;
16401;SDS011;8310;44.626;11.176;2023-08-24T15:24:09;3.80;;;2.03;;
16401;SDS011;8310;44.626;11.176;2023-08-24T15:26:37;4.55;;;2.22;;
16401;SDS011;8310;44.626;11.176;2023-08-24T15:29:08;6.63;;;2.03;;
16401;SDS011;8310;44.626;11.176;2023-08-24T15:31:38;3.50;;;2.15;;
16401;SDS011;8310;44.626;11.176;2023-08-24T15:34:06;5.82;;;1.90;;
16401;SDS011;8310;44.626;11.176;2023-08-24T15:36:34;8.27;;;2.38;;
16401;SDS011;8310;44.626;11.176;2023-08-24T15:39:03;5.95;;;2.50;;
16401;SDS011;8310;44.626;11.176;2023-08-24T15:41:31;4.30;;;2.33;;